createdAt,value
2023-04-05T00:01:33.893Z,76.21
2023-04-05T00:04:02.923Z,76.27
2023-04-05T00:06:31.622Z,76.35
2023-04-05T00:09:03.816Z,76.47
2023-04-05T00:11:33.052Z,76.54
2023-04-05T00:14:01.931Z,76.57
2023-04-05T00:16:31.221Z,76.63
2023-04-05T00:19:00.323Z,76.73
2023-04-05T00:21:29.855Z,76.70
2023-04-05T00:23:59.210Z,76.76
2023-04-05T00:26:27.629Z,76.81
2023-04-05T00:28:57.606Z,76.72
2023-04-05T00:31:25.942Z,76.79
2023-04-05T00:33:54.131Z,76.82
2023-04-05T00:36:22.254Z,76.87
2023-04-05T00:38:50.394Z,76.91
2023-04-05T00:41:18.684Z,77.07
2023-04-05T00:43:47.237Z,77.21
2023-04-05T00:46:17.297Z,77.12
2023-04-05T00:48:45.440Z,77.15
2023-04-05T00:51:13.467Z,77.34
2023-04-05T00:53:46.198Z,77.50
2023-04-05T00:56:15.482Z,77.34
2023-04-05T00:58:52.224Z,77.38
2023-04-05T01:01:22.592Z,77.54
2023-04-05T01:04:00.155Z,77.57
2023-04-05T01:07:00.471Z,77.54
2023-04-05T01:09:36.272Z,77.61
2023-04-05T01:12:09.272Z,77.50
2023-04-05T01:14:45.704Z,77.50
2023-04-05T01:17:14.015Z,77.41
2023-04-05T01:19:48.274Z,77.43
2023-04-05T01:22:20.488Z,77.29
2023-04-05T01:24:58.121Z,77.27
2023-04-05T01:28:04.000Z,77.12
2023-04-05T01:30:39.785Z,77.17
2023-04-05T01:33:19.925Z,77.14
2023-04-05T01:36:09.289Z,77.23
2023-04-05T01:38:39.640Z,77.20
2023-04-05T01:41:07.769Z,77.13
2023-04-05T01:43:37.320Z,77.08
2023-04-05T01:46:05.731Z,77.00
2023-04-05T01:48:33.830Z,77.05
2023-04-05T01:51:02.421Z,77.13
2023-04-05T01:53:31.058Z,77.11
2023-04-05T01:56:02.610Z,77.18
2023-04-05T01:58:31.631Z,77.09
2023-04-05T02:00:59.692Z,77.05
2023-04-05T02:03:28.610Z,76.89
2023-04-05T02:05:58.248Z,77.04
2023-04-05T02:08:26.926Z,77.01
2023-04-05T02:10:55.099Z,77.06
2023-04-05T02:13:25.954Z,77.22
2023-04-05T02:15:54.013Z,77.22
2023-04-05T02:18:22.836Z,77.20
2023-04-05T02:20:51.549Z,77.19
2023-04-05T02:23:20.010Z,77.25
2023-04-05T02:25:48.996Z,77.13
2023-04-05T02:28:18.368Z,77.13
2023-04-05T02:30:46.900Z,77.18
2023-04-05T02:33:15.984Z,77.17
2023-04-05T02:35:44.474Z,77.19
2023-04-05T02:38:13.146Z,77.22
2023-04-05T02:40:42.326Z,77.23
2023-04-05T02:43:10.943Z,77.20
2023-04-05T02:45:40.223Z,77.29
2023-04-05T02:48:09.087Z,77.39
2023-04-05T02:50:37.513Z,77.29
2023-04-05T02:53:09.563Z,77.34
2023-04-05T02:55:42.145Z,77.31
2023-04-05T02:58:10.730Z,77.23
2023-04-05T03:00:51.098Z,77.21
2023-04-05T03:03:21.987Z,77.17
2023-04-05T03:05:59.286Z,77.05
2023-04-05T03:08:32.678Z,77.20
2023-04-05T03:11:07.561Z,77.00
2023-04-05T03:13:38.955Z,76.98
2023-04-05T03:16:12.828Z,77.04
2023-04-05T03:18:42.437Z,77.05
2023-04-05T03:21:18.346Z,77.15
2023-04-05T03:23:53.891Z,77.19
2023-04-05T03:26:25.539Z,77.29
2023-04-05T03:28:54.410Z,77.49
2023-04-05T03:31:30.485Z,77.31
2023-04-05T03:34:01.948Z,77.21
2023-04-05T03:36:43.008Z,77.42
2023-04-05T03:39:31.549Z,77.46
2023-04-05T03:42:01.732Z,77.49
2023-04-05T03:44:30.268Z,77.50
2023-04-05T03:47:05.005Z,77.60
2023-04-05T03:49:34.383Z,77.67
2023-04-05T03:52:02.434Z,77.80
2023-04-05T03:54:31.296Z,77.84
2023-04-05T03:57:01.485Z,77.80
2023-04-05T03:59:30.222Z,77.92
2023-04-05T04:01:59.086Z,77.90
2023-04-05T04:04:28.330Z,77.89
2023-04-05T04:06:58.413Z,77.90
2023-04-05T04:09:29.966Z,77.83
2023-04-05T04:12:01.184Z,78.16
2023-04-05T04:14:32.777Z,78.12
2023-04-05T04:17:11.337Z,78.10
2023-04-05T04:20:14.964Z,78.14
2023-04-05T04:22:58.688Z,78.04
2023-04-05T04:25:46.369Z,78.10
2023-04-05T04:28:39.032Z,77.97
2023-04-05T04:31:25.745Z,77.88
2023-04-05T04:34:02.527Z,78.00
2023-04-05T04:37:00.869Z,78.18
2023-04-05T04:40:03.551Z,78.20
2023-04-05T04:42:46.960Z,78.28
2023-04-05T04:45:34.959Z,78.32
2023-04-05T04:48:21.894Z,78.49
2023-04-05T04:51:04.526Z,78.52
2023-04-05T04:53:36.144Z,78.46
2023-04-05T04:56:07.685Z,78.47
2023-04-05T04:58:36.151Z,78.40
2023-04-05T05:01:09.931Z,78.42
2023-04-05T05:03:40.033Z,78.26
2023-04-05T05:06:08.553Z,78.33
2023-04-05T05:08:37.485Z,78.44
2023-04-05T05:11:07.585Z,78.41
2023-04-05T05:13:36.478Z,78.32
2023-04-05T05:16:05.752Z,78.14
2023-04-05T05:18:40.280Z,78.18
2023-04-05T05:21:08.322Z,78.24
2023-04-05T05:23:36.435Z,78.22
2023-04-05T05:26:05.149Z,78.29
2023-04-05T05:28:33.260Z,78.41
2023-04-05T05:31:01.682Z,78.39
2023-04-05T05:33:31.377Z,78.43
2023-04-05T05:35:59.537Z,78.40
2023-04-05T05:38:27.828Z,78.30
2023-04-05T05:40:57.334Z,78.35
2023-04-05T05:43:25.429Z,78.18
2023-04-05T05:45:53.752Z,78.16
2023-04-05T05:48:22.955Z,78.03
2023-04-05T05:50:51.142Z,78.07
2023-04-05T05:53:19.367Z,78.03
2023-04-05T05:55:47.707Z,78.01
2023-04-05T05:58:17.022Z,77.88
2023-04-05T06:00:49.211Z,77.90
2023-04-05T06:03:19.467Z,77.82
2023-04-05T06:05:54.700Z,77.82
2023-04-05T06:08:23.699Z,77.72
2023-04-05T06:10:52.377Z,77.70
2023-04-05T06:13:20.552Z,77.70
2023-04-05T06:15:49.041Z,77.76
2023-04-05T06:18:21.067Z,77.66
2023-04-05T06:20:49.126Z,77.65
2023-04-05T06:23:18.536Z,77.54
2023-04-05T06:25:46.547Z,77.56
2023-04-05T06:28:14.662Z,77.63
2023-04-05T06:30:43.480Z,77.53
2023-04-05T06:33:12.234Z,77.53
2023-04-05T06:35:40.744Z,77.39
2023-04-05T06:38:09.639Z,77.40
2023-04-05T06:40:38.211Z,77.36
2023-04-05T06:43:07.719Z,77.25
2023-04-05T06:45:36.156Z,77.33
2023-04-05T06:48:08.781Z,77.17
2023-04-05T06:50:37.225Z,77.10
2023-04-05T06:53:06.557Z,77.12
2023-04-05T06:55:34.972Z,76.91
2023-04-05T06:58:03.186Z,77.03
2023-04-05T07:00:34.132Z,77.05
2023-04-05T07:03:03.916Z,76.91
2023-04-05T07:05:32.324Z,76.84
2023-04-05T07:08:01.862Z,76.83
2023-04-05T07:10:30.220Z,76.75
2023-04-05T07:12:58.249Z,76.78
2023-04-05T07:15:34.563Z,76.74
2023-04-05T07:18:03.532Z,76.77
2023-04-05T07:20:31.634Z,76.77
2023-04-05T07:22:59.772Z,76.61
2023-04-05T07:25:28.335Z,76.70
2023-04-05T07:27:57.241Z,76.65
2023-04-05T07:30:27.889Z,76.69
2023-04-05T07:32:58.728Z,76.71
2023-04-05T07:35:27.965Z,76.62
2023-04-05T07:37:57.735Z,76.58
2023-04-05T07:40:26.182Z,76.34
2023-04-05T07:42:54.540Z,76.28
2023-04-05T07:45:23.071Z,76.19
2023-04-05T07:47:51.709Z,76.14
2023-04-05T07:50:20.904Z,76.10
2023-04-05T07:52:49.165Z,76.02
2023-04-05T07:55:17.836Z,75.99
2023-04-05T07:57:46.124Z,75.86
2023-04-05T08:00:15.609Z,75.87
2023-04-05T08:02:49.681Z,75.83
2023-04-05T08:05:18.531Z,75.74
2023-04-05T08:07:47.021Z,75.71
2023-04-05T08:10:18.430Z,75.66
2023-04-05T08:12:46.691Z,75.73
2023-04-05T08:15:19.087Z,75.56
2023-04-05T08:17:49.637Z,75.49
2023-04-05T08:20:17.836Z,75.51
2023-04-05T08:22:45.979Z,75.66
2023-04-05T08:25:14.128Z,75.67
2023-04-05T08:27:42.306Z,75.62
2023-04-05T08:30:10.954Z,75.78
2023-04-05T08:32:39.302Z,75.80
2023-04-05T08:35:07.680Z,75.82
2023-04-05T08:37:36.319Z,75.97
2023-04-05T08:40:05.094Z,76.06
2023-04-05T08:42:45.162Z,76.28
2023-04-05T08:45:14.491Z,76.51
2023-04-05T08:47:43.206Z,76.50
2023-04-05T08:50:13.741Z,76.42
2023-04-05T08:52:43.358Z,76.34
2023-04-05T08:55:11.508Z,76.23
2023-04-05T08:57:40.695Z,76.24
2023-04-05T09:00:09.316Z,76.34
2023-04-05T09:02:39.693Z,76.26
2023-04-05T09:05:09.726Z,76.27
2023-04-05T09:07:37.990Z,76.25
2023-04-05T09:10:06.949Z,76.17
2023-04-05T09:12:36.038Z,76.13
2023-04-05T09:15:04.414Z,76.23
2023-04-05T09:17:33.472Z,76.10
2023-04-05T09:20:02.181Z,76.25
2023-04-05T09:22:31.501Z,76.24
2023-04-05T09:25:01.526Z,76.19
2023-04-05T09:27:30.370Z,76.32
2023-04-05T09:30:00.990Z,76.41
2023-04-05T09:32:31.160Z,76.41
2023-04-05T09:35:04.108Z,76.45
2023-04-05T09:37:34.201Z,76.54
2023-04-05T09:40:04.491Z,76.55
2023-04-05T09:42:45.066Z,76.48
2023-04-05T09:45:15.186Z,76.48
2023-04-05T09:48:00.168Z,76.51
2023-04-05T09:50:29.389Z,76.36
2023-04-05T09:53:16.074Z,76.29
2023-04-05T09:55:45.423Z,76.25
2023-04-05T09:58:21.397Z,76.35
2023-04-05T10:00:57.907Z,76.50
2023-04-05T10:03:32.829Z,76.66
2023-04-05T10:06:01.476Z,76.65
2023-04-05T10:08:32.937Z,76.51
2023-04-05T10:11:01.176Z,76.48
2023-04-05T10:13:29.450Z,76.53
2023-04-05T10:15:59.490Z,76.59
2023-04-05T10:18:30.549Z,76.64
2023-04-05T10:20:59.954Z,76.54
2023-04-05T10:23:28.993Z,76.68
2023-04-05T10:26:00.202Z,76.63
2023-04-05T10:28:32.989Z,76.61
2023-04-05T10:31:37.025Z,76.48
2023-04-05T10:34:07.443Z,76.27
2023-04-05T10:36:51.215Z,76.46
2023-04-05T10:39:26.166Z,76.67
2023-04-05T10:41:58.736Z,76.61
2023-04-05T10:44:27.178Z,76.63
2023-04-05T10:46:55.846Z,76.55
2023-04-05T10:49:36.869Z,76.50
2023-04-05T10:52:09.190Z,76.60
2023-04-05T10:54:37.729Z,76.50
2023-04-05T10:57:09.337Z,76.35
2023-04-05T10:59:44.481Z,76.45
2023-04-05T11:02:13.188Z,76.45
2023-04-05T11:04:42.932Z,76.59
2023-04-05T11:07:15.798Z,76.42
2023-04-05T11:10:01.321Z,76.44
2023-04-05T11:12:48.602Z,76.39
2023-04-05T11:15:27.838Z,76.34
2023-04-05T11:18:12.967Z,76.30
2023-04-05T11:20:51.804Z,76.27
2023-04-05T11:23:21.341Z,76.05
2023-04-05T11:26:05.781Z,75.95
2023-04-05T11:28:39.664Z,75.69
2023-04-05T11:31:21.409Z,75.38
2023-04-05T11:33:57.609Z,75.27
2023-04-05T11:36:34.995Z,75.11
2023-04-05T11:39:18.811Z,75.06
2023-04-05T11:42:02.601Z,75.22
2023-04-05T11:44:48.611Z,75.10
2023-04-05T11:47:17.708Z,75.06
2023-04-05T11:49:47.395Z,75.20
2023-04-05T11:52:17.335Z,75.29
2023-04-05T11:54:49.905Z,75.33
2023-04-05T11:57:20.965Z,75.18
2023-04-05T11:59:52.747Z,75.30
2023-04-05T12:02:21.695Z,75.16
2023-04-05T12:04:57.468Z,75.02
2023-04-05T12:07:28.474Z,74.84
2023-04-05T12:10:16.237Z,74.93
2023-04-05T12:12:49.218Z,74.98
2023-04-05T12:15:19.342Z,74.92
2023-04-05T12:17:54.700Z,74.84
2023-04-05T12:20:25.137Z,74.90
2023-04-05T12:22:54.202Z,74.83
2023-04-05T12:25:22.499Z,74.88
2023-04-05T12:27:51.504Z,74.76
2023-04-05T12:30:22.295Z,74.79
2023-04-05T12:32:55.456Z,74.66
2023-04-05T12:35:34.739Z,74.87
2023-04-05T12:38:05.771Z,75.01
2023-04-05T12:40:34.309Z,75.05
2023-04-05T12:43:04.321Z,75.02
2023-04-05T12:45:40.595Z,75.02
2023-04-05T12:48:13.765Z,74.99
2023-04-05T12:50:46.680Z,74.96
2023-04-05T12:53:28.823Z,74.88
2023-04-05T12:55:58.447Z,74.65
2023-04-05T12:58:35.648Z,74.78
2023-04-05T13:01:04.113Z,74.82
2023-04-05T13:03:32.939Z,74.82
2023-04-05T13:06:01.137Z,74.86
2023-04-05T13:08:29.656Z,74.89
2023-04-05T13:11:00.992Z,74.86
2023-04-05T13:13:34.477Z,74.96
2023-04-05T13:16:02.969Z,74.93
2023-04-05T13:18:31.487Z,75.07
2023-04-05T13:20:59.586Z,75.12
2023-04-05T13:23:27.848Z,75.06
2023-04-05T13:25:56.120Z,75.13
2023-04-05T13:28:25.960Z,75.21
2023-04-05T13:30:54.656Z,75.27
2023-04-05T13:33:24.083Z,75.30
2023-04-05T13:35:52.392Z,75.30
2023-04-05T13:38:21.982Z,75.44
2023-04-05T13:40:50.064Z,75.44
2023-04-05T13:43:18.313Z,75.61
2023-04-05T13:45:47.926Z,75.87
2023-04-05T13:48:16.285Z,75.91
2023-04-05T13:50:48.617Z,75.92
2023-04-05T13:53:17.386Z,75.93
2023-04-05T13:55:45.584Z,75.95
2023-04-05T13:58:16.574Z,76.06
2023-04-05T14:00:45.279Z,76.20
2023-04-05T14:03:13.825Z,76.23
2023-04-05T14:05:42.702Z,76.16
2023-04-05T14:08:10.858Z,76.04
2023-04-05T14:10:39.515Z,75.83
2023-04-05T14:13:08.594Z,76.06
2023-04-05T14:15:36.642Z,76.20
2023-04-05T14:18:10.063Z,76.25
2023-04-05T14:20:40.208Z,76.32
2023-04-05T14:23:08.964Z,76.44
2023-04-05T14:25:37.822Z,76.51
2023-04-05T14:28:07.530Z,76.54
2023-04-05T14:30:39.634Z,76.60
2023-04-05T14:33:09.009Z,76.56
2023-04-05T14:35:37.480Z,76.66
2023-04-05T14:38:12.616Z,76.66
2023-04-05T14:40:43.104Z,76.68
2023-04-05T14:43:11.688Z,76.78
2023-04-05T14:45:39.945Z,76.81
2023-04-05T14:48:08.168Z,77.02
2023-04-05T14:50:36.550Z,77.02
2023-04-05T14:53:05.312Z,77.02
2023-04-05T14:55:33.656Z,77.13
2023-04-05T14:58:01.847Z,77.22
2023-04-05T15:00:30.066Z,77.09
2023-04-05T15:03:01.387Z,77.09
2023-04-05T15:05:31.140Z,77.20
2023-04-05T15:07:59.358Z,77.23
2023-04-05T15:10:39.541Z,77.39
2023-04-05T15:13:10.573Z,77.65
2023-04-05T15:15:38.805Z,77.63
2023-04-05T15:18:21.033Z,77.62
2023-04-05T15:20:49.565Z,77.84
2023-04-05T15:23:18.301Z,77.94
2023-04-05T15:25:47.766Z,77.96
2023-04-05T15:28:15.933Z,77.86
2023-04-05T15:30:45.884Z,77.93
2023-04-05T15:33:14.473Z,78.01
2023-04-05T15:35:42.583Z,78.06
2023-04-05T15:38:11.412Z,78.16
2023-04-05T15:40:40.383Z,78.42
2023-04-05T15:43:08.511Z,78.47
2023-04-05T15:45:37.507Z,78.54
2023-04-05T15:48:06.090Z,78.56
2023-04-05T15:50:35.019Z,78.63
2023-04-05T15:53:03.268Z,78.73
2023-04-05T15:55:32.690Z,78.82
2023-04-05T15:58:00.786Z,78.90
2023-04-05T16:00:30.558Z,79.01
2023-04-05T16:03:00.733Z,79.08
2023-04-05T16:05:29.324Z,79.08
2023-04-05T16:07:59.755Z,79.07
2023-04-05T16:10:27.921Z,79.09
2023-04-05T16:13:01.309Z,79.04
2023-04-05T16:15:30.646Z,79.11
2023-04-05T16:17:59.417Z,79.18
2023-04-05T16:20:30.247Z,79.25
2023-04-05T16:23:00.026Z,79.28
2023-04-05T16:25:28.373Z,79.56
2023-04-05T16:27:58.053Z,79.64
2023-04-05T16:30:27.046Z,79.67
2023-04-05T16:32:55.543Z,79.68
2023-04-05T16:35:23.743Z,79.77
2023-04-05T16:37:52.666Z,79.77
2023-04-05T16:40:21.061Z,79.73
2023-04-05T16:42:51.242Z,79.65
2023-04-05T16:45:19.970Z,79.78
2023-04-05T16:47:50.437Z,79.69
2023-04-05T16:50:18.902Z,79.92
2023-04-05T16:52:48.799Z,80.04
2023-04-05T16:55:17.605Z,80.20
2023-04-05T16:57:46.167Z,80.16
2023-04-05T17:00:15.926Z,80.08
2023-04-05T17:02:45.679Z,80.19
2023-04-05T17:05:15.009Z,80.17
2023-04-05T17:07:44.777Z,80.33
2023-04-05T17:10:13.308Z,80.32
2023-04-05T17:12:52.034Z,80.38
2023-04-05T17:15:20.121Z,80.40
2023-04-05T17:17:48.554Z,80.45
2023-04-05T17:20:16.817Z,80.48
2023-04-05T17:22:46.396Z,80.43
2023-04-05T17:25:14.996Z,80.59
2023-04-05T17:27:43.152Z,80.65
2023-04-05T17:30:12.168Z,80.67
2023-04-05T17:32:51.945Z,80.74
2023-04-05T17:35:20.681Z,80.88
2023-04-05T17:37:49.100Z,80.83
2023-04-05T17:40:18.757Z,80.90
2023-04-05T17:42:48.512Z,80.92
2023-04-05T17:45:16.965Z,80.90
2023-04-05T17:47:46.533Z,80.88
2023-04-05T17:50:15.628Z,80.97
2023-04-05T17:52:46.648Z,80.93
2023-04-05T17:55:14.855Z,80.92
2023-04-05T17:57:43.551Z,80.99
2023-04-05T18:00:12.692Z,81.02
2023-04-05T18:02:41.753Z,81.03
2023-04-05T18:05:10.719Z,81.03
2023-04-05T18:07:38.871Z,81.05
2023-04-05T18:10:07.885Z,81.12
2023-04-05T18:12:36.824Z,81.13
2023-04-05T18:15:05.268Z,81.15
2023-04-05T18:17:33.859Z,81.26
2023-04-05T18:20:02.480Z,81.28
2023-04-05T18:22:38.073Z,81.25
2023-04-05T18:25:08.778Z,81.40
2023-04-05T18:27:38.227Z,81.54
2023-04-05T18:30:08.128Z,81.45
2023-04-05T18:32:39.039Z,81.46
2023-04-05T18:35:09.162Z,81.59
2023-04-05T18:37:37.462Z,81.55
2023-04-05T18:40:06.441Z,81.55
2023-04-05T18:42:40.455Z,81.54
2023-04-05T18:45:10.067Z,81.56
2023-04-05T18:47:38.275Z,81.56
2023-04-05T18:50:10.157Z,81.63
2023-04-05T18:52:38.563Z,81.64
2023-04-05T18:55:07.483Z,81.70
2023-04-05T18:57:36.392Z,81.66
2023-04-05T19:00:05.400Z,81.66
2023-04-05T19:02:35.079Z,81.61
2023-04-05T19:05:03.942Z,81.53
2023-04-05T19:07:33.653Z,81.65
2023-04-05T19:10:01.898Z,81.80
2023-04-05T19:12:31.052Z,81.81
2023-04-05T19:15:03.761Z,81.90
2023-04-05T19:17:33.254Z,81.92
2023-04-05T19:20:01.393Z,81.91
2023-04-05T19:22:30.911Z,81.90
2023-04-05T19:25:01.085Z,81.85
2023-04-05T19:27:35.771Z,81.88
2023-04-05T19:30:04.818Z,81.76
2023-04-05T19:32:34.147Z,81.79
2023-04-05T19:35:02.397Z,81.82
2023-04-05T19:37:31.264Z,81.78
2023-04-05T19:39:59.632Z,81.83
2023-04-05T19:42:27.669Z,81.85
2023-04-05T19:44:57.768Z,81.82
2023-04-05T19:47:26.496Z,81.88
2023-04-05T19:49:57.197Z,81.96
2023-04-05T19:52:45.509Z,81.90
2023-04-05T19:55:27.661Z,81.84
2023-04-05T19:57:56.257Z,81.81
2023-04-05T20:00:31.652Z,81.87
2023-04-05T20:03:01.562Z,81.96
2023-04-05T20:06:02.581Z,81.86
2023-04-05T20:08:40.497Z,82.06
2023-04-05T20:11:15.985Z,82.09
2023-04-05T20:13:48.332Z,82.19
2023-04-05T20:16:18.060Z,82.20
2023-04-05T20:18:47.136Z,82.13
2023-04-05T20:21:15.919Z,82.16
2023-04-05T20:23:44.395Z,82.13
2023-04-05T20:26:17.225Z,82.24
2023-04-05T20:28:56.658Z,82.26
2023-04-05T20:31:33.023Z,82.30
2023-04-05T20:34:33.715Z,82.39
2023-04-05T20:37:03.058Z,82.23
2023-04-05T20:39:32.676Z,82.28
2023-04-05T20:42:01.457Z,82.34
2023-04-05T20:44:30.131Z,82.34
2023-04-05T20:46:59.253Z,82.37
2023-04-05T20:49:28.231Z,82.33
2023-04-05T20:51:57.763Z,82.30
2023-04-05T20:54:26.892Z,82.28
2023-04-05T20:56:58.522Z,82.33
2023-04-05T20:59:27.555Z,82.39
2023-04-05T21:01:55.935Z,82.37
2023-04-05T21:04:25.425Z,82.53
2023-04-05T21:06:54.563Z,82.48
2023-04-05T21:09:23.573Z,82.45
2023-04-05T21:11:52.945Z,82.60
2023-04-05T21:14:21.602Z,82.56
2023-04-05T21:16:49.690Z,82.47
2023-04-05T21:19:17.938Z,82.52
2023-04-05T21:21:46.103Z,82.31
2023-04-05T21:24:14.256Z,82.32
2023-04-05T21:26:42.852Z,82.31
2023-04-05T21:29:11.160Z,82.37
2023-04-05T21:31:39.268Z,82.33
2023-04-05T21:34:07.380Z,82.38
2023-04-05T21:36:40.541Z,82.29
2023-04-05T21:39:09.771Z,82.30
2023-04-05T21:41:38.180Z,82.17
2023-04-05T21:44:06.659Z,82.16
2023-04-05T21:46:35.186Z,82.15
2023-04-05T21:49:03.321Z,82.12
2023-04-05T21:51:33.097Z,81.95
2023-04-05T21:54:01.193Z,82.03
2023-04-05T21:56:32.575Z,82.00
2023-04-05T21:59:00.743Z,81.93
2023-04-05T22:01:29.308Z,81.85
2023-04-05T22:03:58.513Z,81.96
2023-04-05T22:06:27.064Z,81.88
2023-04-05T22:08:55.213Z,81.81
2023-04-05T22:11:26.701Z,81.88
2023-04-05T22:13:54.966Z,81.82
2023-04-05T22:16:23.144Z,81.66
2023-04-05T22:18:51.218Z,81.73
2023-04-05T22:21:19.368Z,81.54
2023-04-05T22:23:47.768Z,81.49
2023-04-05T22:26:15.994Z,81.40
2023-04-05T22:28:44.312Z,81.31
2023-04-05T22:31:12.498Z,81.27
2023-04-05T22:33:41.360Z,81.26
2023-04-05T22:36:10.049Z,81.20
2023-04-05T22:38:39.379Z,81.26
2023-04-05T22:41:07.819Z,81.20
2023-04-05T22:43:36.775Z,81.12
2023-04-05T22:46:06.307Z,81.04
2023-04-05T22:48:34.393Z,81.03
2023-04-05T22:51:02.867Z,80.88
2023-04-05T22:53:31.331Z,80.84
2023-04-05T22:55:59.852Z,80.83
2023-04-05T22:58:32.918Z,80.69
2023-04-05T23:01:05.420Z,80.75
2023-04-05T23:03:35.867Z,80.65
2023-04-05T23:06:04.091Z,80.56
2023-04-05T23:08:33.606Z,80.49
2023-04-05T23:11:03.335Z,80.45
2023-04-05T23:13:32.364Z,80.34
2023-04-05T23:16:00.630Z,80.37
2023-04-05T23:18:28.923Z,80.30
2023-04-05T23:20:57.292Z,80.25
2023-04-05T23:23:25.992Z,80.24
2023-04-05T23:25:54.134Z,80.23
2023-04-05T23:28:22.201Z,80.19
2023-04-05T23:30:50.724Z,80.07
2023-04-05T23:33:20.152Z,80.06
2023-04-05T23:35:49.248Z,80.16
2023-04-05T23:38:18.223Z,80.08
2023-04-05T23:40:46.357Z,79.99
2023-04-05T23:43:14.945Z,79.91
2023-04-05T23:45:43.172Z,79.88
2023-04-05T23:48:13.038Z,79.79
2023-04-05T23:50:41.386Z,79.77
2023-04-05T23:53:09.456Z,79.77
2023-04-05T23:55:40.695Z,79.63
2023-04-05T23:58:08.840Z,79.64
